Leeds, Alabama
Current Conditions -  °F | °C
As of 7:53 AM on Friday 28 Nov 2014 (Local Time) from KBHM Reporting Station
Clear Clear  
Wind Chill: -1°   Ceiling: Unl
Heat Index: -1°   Visibility: 9mi
Dew Point: -3°   Wind: 0mph
Humidity: 82%   Direction: NA
Pressure: 30.48"   Gusts: NA
Location:  33.54°N, 86.54°W
Report Text: KBHM 281353Z 00000KT 9SM CLR M01/M03 A3048 RMK AO2 SLP325 T10061033
Loading
Personal Weather Stations






























Interactive Weather Map New forecast layout! Learn more

10-Day Weather Forecast

Advertisements
Track Severe Weather on mobile